createdAt,value
2019-06-01T00:04:06.113Z,101738.30
2019-06-01T00:09:10.188Z,101740.64
2019-06-01T00:14:14.287Z,101737.80
2019-06-01T00:19:18.324Z,101735.19
2019-06-01T00:24:22.794Z,101737.94
2019-06-01T00:29:26.849Z,101734.28
2019-06-01T00:34:30.940Z,101734.66
2019-06-01T00:39:35.055Z,101741.92
2019-06-01T00:44:39.091Z,101738.37
2019-06-01T00:49:43.203Z,101728.61
2019-06-01T00:54:47.409Z,101725.58
2019-06-01T00:59:53.664Z,101724.25
2019-06-01T01:05:01.739Z,101729.66
2019-06-01T01:10:05.918Z,101725.63
2019-06-01T01:15:10.086Z,101736.89
2019-06-01T01:20:14.131Z,101732.67
2019-06-01T01:25:18.255Z,101742.09
2019-06-01T01:30:22.475Z,101738.24
2019-06-01T01:35:27.336Z,101731.13
2019-06-01T01:40:31.360Z,101735.02
2019-06-01T01:45:35.433Z,101727.28
2019-06-01T01:50:39.554Z,101728.42
2019-06-01T01:55:43.628Z,101721.86
2019-06-01T02:00:49.355Z,101724.55
2019-06-01T02:05:54.893Z,101723.20
2019-06-01T02:10:59.554Z,101726.02
2019-06-01T02:16:03.632Z,101725.14
2019-06-01T02:21:07.993Z,101719.03
2019-06-01T02:26:12.051Z,101714.48
2019-06-01T02:31:16.174Z,101712.30
2019-06-01T02:36:20.238Z,101704.58
2019-06-01T02:41:24.267Z,101703.70
2019-06-01T02:46:28.927Z,101708.62
2019-06-01T02:51:33.026Z,101708.91
2019-06-01T02:56:37.108Z,101707.73
2019-06-01T03:01:56.038Z,101715.43
2019-06-01T03:06:49.511Z,101709.69
2019-06-01T03:11:55.856Z,101709.70
2019-06-01T03:17:01.727Z,101711.56
2019-06-01T03:22:08.880Z,101713.96
2019-06-01T03:27:14.880Z,101713.64
2019-06-01T03:32:34.120Z,101712.00
2019-06-01T03:37:24.662Z,101708.17
2019-06-01T03:42:28.857Z,101707.55
2019-06-01T03:47:32.968Z,101705.22
2019-06-01T03:52:37.002Z,101713.83
2019-06-01T03:57:41.023Z,101712.81
2019-06-01T04:02:45.071Z,101712.30
2019-06-01T04:07:49.182Z,101717.00
2019-06-01T04:12:53.242Z,101715.55
2019-06-01T04:17:57.311Z,101722.18
2019-06-01T04:23:06.175Z,101723.41
2019-06-01T04:28:10.357Z,101729.45
2019-06-01T04:33:14.485Z,101730.03
2019-06-01T04:38:18.515Z,101727.60
2019-06-01T04:43:22.583Z,101730.26
2019-06-01T04:48:26.600Z,101732.47
2019-06-01T04:53:30.613Z,101737.81
2019-06-01T04:58:34.650Z,101740.00
2019-06-01T05:03:38.716Z,101748.63
2019-06-01T05:08:43.296Z,101749.59
2019-06-01T05:13:47.316Z,101749.55
2019-06-01T05:18:51.351Z,101752.09
2019-06-01T05:23:56.050Z,101755.20
2019-06-01T05:29:00.182Z,101753.98
2019-06-01T05:34:09.720Z,101755.00
2019-06-01T05:39:14.443Z,101755.69
2019-06-01T05:44:19.254Z,101753.28
2019-06-01T05:49:23.655Z,101757.34
2019-06-01T05:54:27.768Z,101764.89
2019-06-01T05:59:31.836Z,101758.70
2019-06-01T06:04:36.684Z,101758.53
2019-06-01T06:09:49.920Z,101766.38
2019-06-01T06:14:55.207Z,101766.11
2019-06-01T06:19:59.279Z,101765.45
2019-06-01T06:25:07.440Z,101763.79
2019-06-01T06:30:12.800Z,101765.45
2019-06-01T06:35:17.431Z,101762.31
2019-06-01T06:40:22.149Z,101766.56
2019-06-01T06:45:26.295Z,101761.82
2019-06-01T06:50:30.596Z,101757.49
2019-06-01T06:55:35.559Z,101769.53
2019-06-01T07:00:39.693Z,101764.71
2019-06-01T07:05:44.082Z,101766.90
2019-06-01T07:10:48.255Z,101767.80
2019-06-01T07:15:52.801Z,101761.31
2019-06-01T07:20:56.872Z,101765.86
2019-06-01T07:26:01.354Z,101760.28
2019-06-01T07:31:05.791Z,101757.03
2019-06-01T07:36:09.915Z,101756.98
2019-06-01T07:41:14.376Z,101756.85
2019-06-01T07:46:18.587Z,101756.70
2019-06-01T07:51:23.225Z,101753.47
2019-06-01T07:56:28.679Z,101752.03
2019-06-01T08:01:33.038Z,101750.14
2019-06-01T08:06:43.908Z,101760.93
2019-06-01T08:11:42.968Z,101757.97
2019-06-01T08:16:47.117Z,101754.97
2019-06-01T08:21:51.163Z,101763.65
2019-06-01T08:26:55.247Z,101764.22
2019-06-01T08:31:59.339Z,101753.27
2019-06-01T08:37:03.443Z,101746.45
2019-06-01T08:42:07.529Z,101743.95
2019-06-01T08:47:11.647Z,101741.15
2019-06-01T08:52:15.742Z,101737.30
2019-06-01T08:57:20.102Z,101733.59
2019-06-01T09:02:24.580Z,101715.74
2019-06-01T09:07:29.064Z,101703.09
2019-06-01T09:12:33.355Z,101691.84
2019-06-01T09:17:37.523Z,101691.84
2019-06-01T09:22:41.595Z,101690.78
2019-06-01T09:27:46.102Z,101697.95
2019-06-01T09:32:50.230Z,101690.48
2019-06-01T09:37:54.323Z,101685.69
2019-06-01T09:42:59.681Z,101685.69
2019-06-01T09:48:03.839Z,101679.96
2019-06-01T09:53:07.977Z,101679.79
2019-06-01T09:58:12.032Z,101676.49
2019-06-01T10:03:16.256Z,101678.70
2019-06-01T10:08:20.441Z,101682.66
2019-06-01T10:13:24.478Z,101669.71
2019-06-01T10:18:28.555Z,101671.42
2019-06-01T10:23:32.645Z,101662.81
2019-06-01T10:28:37.810Z,101647.65
2019-06-01T10:33:43.197Z,101636.75
2019-06-01T10:38:47.367Z,101648.38
2019-06-01T10:43:51.407Z,101641.80
2019-06-01T10:48:55.456Z,101632.41
2019-06-01T10:53:59.487Z,101623.66
2019-06-01T10:59:04.514Z,101613.56
2019-06-01T11:04:08.558Z,101615.31
2019-06-01T11:09:12.706Z,101618.25
2019-06-01T11:14:16.778Z,101607.60
2019-06-01T11:19:20.974Z,101593.44
2019-06-01T11:24:25.044Z,101605.61
2019-06-01T11:29:29.226Z,101593.34
2019-06-01T11:34:33.962Z,101590.34
2019-06-01T11:39:38.505Z,101582.97
2019-06-01T11:44:42.922Z,101586.85
2019-06-01T11:49:47.415Z,101572.20
2019-06-01T11:54:51.545Z,101555.48
2019-06-01T11:59:55.694Z,101557.83
2019-06-01T12:04:59.758Z,101558.64
2019-06-01T12:10:04.394Z,101552.94
2019-06-01T12:15:08.996Z,101556.19
2019-06-01T12:20:13.282Z,101536.73
2019-06-01T12:25:17.487Z,101545.63
2019-06-01T12:30:21.799Z,101536.95
2019-06-01T12:35:26.103Z,101525.15
2019-06-01T12:40:30.124Z,101516.31
2019-06-01T12:45:34.155Z,101512.59
2019-06-01T12:50:38.192Z,101499.17
2019-06-01T12:55:42.859Z,101494.70
2019-06-01T13:00:48.274Z,101486.88
2019-06-01T13:05:52.535Z,101479.11
2019-06-01T13:10:56.679Z,101475.34
2019-06-01T13:16:00.733Z,101465.55
2019-06-01T13:21:04.866Z,101467.16
2019-06-01T13:26:09.158Z,101462.36
2019-06-01T13:31:13.265Z,101462.75
2019-06-01T13:36:17.385Z,101446.38
2019-06-01T13:41:21.438Z,101448.02
2019-06-01T13:46:25.687Z,101436.24
2019-06-01T13:51:29.712Z,101437.21
2019-06-01T13:56:33.817Z,101426.98
2019-06-01T14:01:38.005Z,101423.61
2019-06-01T14:06:42.121Z,101430.58
2019-06-01T14:11:47.378Z,101418.20
2019-06-01T14:16:51.919Z,101431.41
2019-06-01T14:21:57.049Z,101417.39
2019-06-01T14:27:04.502Z,101402.75
2019-06-01T14:32:09.320Z,101400.13
2019-06-01T14:37:13.637Z,101423.00
2019-06-01T14:42:17.691Z,101403.50
2019-06-01T14:47:21.749Z,101391.47
2019-06-01T14:52:26.770Z,101394.50
2019-06-01T14:57:32.070Z,101388.23
2019-06-01T15:02:36.836Z,101386.89
2019-06-01T15:07:40.971Z,101388.58
2019-06-01T15:12:45.232Z,101376.89
2019-06-01T15:17:53.338Z,101372.56
2019-06-01T15:22:58.424Z,101378.02
2019-06-01T15:28:04.076Z,101373.87
2019-06-01T15:33:08.413Z,101371.67
2019-06-01T15:38:13.500Z,101364.52
2019-06-01T15:43:17.679Z,101365.77
2019-06-01T15:48:21.711Z,101361.02
2019-06-01T15:53:25.745Z,101360.45
2019-06-01T15:58:30.064Z,101354.94
2019-06-01T16:03:37.599Z,101354.73
2019-06-01T16:08:41.853Z,101350.62
2019-06-01T16:13:45.945Z,101346.59
2019-06-01T16:18:49.981Z,101355.30
2019-06-01T16:23:54.143Z,101339.35
2019-06-01T16:28:58.559Z,101343.47
2019-06-01T16:34:03.129Z,101333.02
2019-06-01T16:39:08.335Z,101332.73
2019-06-01T16:44:13.003Z,101332.18
2019-06-01T16:49:17.248Z,101331.31
2019-06-01T16:54:21.362Z,101336.52
2019-06-01T16:59:25.816Z,101336.56
2019-06-01T17:04:30.253Z,101338.25
2019-06-01T17:09:34.313Z,101330.22
2019-06-01T17:14:38.424Z,101329.92
2019-06-01T17:19:42.458Z,101330.81
2019-06-01T17:24:46.592Z,101333.57
2019-06-01T17:29:50.731Z,101342.27
2019-06-01T17:34:54.904Z,101333.55
2019-06-01T17:40:00.046Z,101341.52
2019-06-01T17:45:07.726Z,101324.89
2019-06-01T17:50:13.970Z,101322.09
2019-06-01T17:55:34.802Z,101318.37
2019-06-01T18:00:39.659Z,101321.20
2019-06-01T18:05:47.751Z,101318.20
2019-06-01T18:10:55.979Z,101316.08
2019-06-01T18:16:03.010Z,101326.73
2019-06-01T18:21:10.490Z,101323.22
2019-06-01T18:26:17.227Z,101328.31
2019-06-01T18:31:25.788Z,101329.30
2019-06-01T18:36:31.451Z,101326.01
2019-06-01T18:41:37.636Z,101332.24
2019-06-01T18:46:50.636Z,101329.06
2019-06-01T18:51:56.764Z,101326.37
2019-06-01T18:57:12.222Z,101329.08
2019-06-01T19:02:14.585Z,101330.36
2019-06-01T19:07:18.832Z,101337.27
2019-06-01T19:12:24.524Z,101343.59
2019-06-01T19:17:29.326Z,101338.75
2019-06-01T19:22:34.532Z,101344.38
2019-06-01T19:27:39.229Z,101346.98
2019-06-01T19:32:43.696Z,101361.97
2019-06-01T19:37:47.742Z,101364.91
2019-06-01T19:42:52.145Z,101369.59
2019-06-01T19:47:56.684Z,101366.44
2019-06-01T19:53:01.229Z,101372.06
2019-06-01T19:58:05.674Z,101378.61
2019-06-01T20:03:10.296Z,101381.68
2019-06-01T20:08:18.173Z,101387.75
2019-06-01T20:13:22.602Z,101389.79
2019-06-01T20:18:28.645Z,101383.88
2019-06-01T20:23:35.067Z,101387.52
2019-06-01T20:28:39.789Z,101394.31
2019-06-01T20:33:43.862Z,101391.73
2019-06-01T20:38:47.940Z,101401.61
2019-06-01T20:43:52.045Z,101398.19
2019-06-01T20:48:56.235Z,101391.31
2019-06-01T20:54:03.291Z,101385.19
2019-06-01T20:59:10.791Z,101391.34
2019-06-01T21:04:18.055Z,101388.16
2019-06-01T21:09:29.272Z,101390.11
2019-06-01T21:14:37.116Z,101391.27
2019-06-01T21:19:44.873Z,101391.67
2019-06-01T21:24:53.215Z,101380.61
2019-06-01T21:30:00.515Z,101383.20
2019-06-01T21:35:05.410Z,101388.05
2019-06-01T21:40:09.919Z,101392.63
2019-06-01T21:45:15.415Z,101391.38
2019-06-01T21:50:19.998Z,101386.99
2019-06-01T21:55:24.733Z,101396.12
2019-06-01T22:00:31.237Z,101400.47
2019-06-01T22:05:35.442Z,101406.00
2019-06-01T22:10:40.560Z,101407.00
2019-06-01T22:15:44.776Z,101405.20
2019-06-01T22:20:48.815Z,101401.55
2019-06-01T22:25:52.941Z,101405.66
2019-06-01T22:30:57.077Z,101407.16
2019-06-01T22:36:01.182Z,101409.67
2019-06-01T22:41:05.267Z,101402.26
2019-06-01T22:46:09.817Z,101402.43
2019-06-01T22:51:13.969Z,101402.81
2019-06-01T22:56:18.083Z,101400.08
2019-06-01T23:01:22.905Z,101397.68
2019-06-01T23:06:27.103Z,101391.70
2019-06-01T23:11:31.689Z,101400.23
2019-06-01T23:16:35.849Z,101408.39
2019-06-01T23:21:39.982Z,101410.27
2019-06-01T23:26:44.502Z,101409.66
2019-06-01T23:31:48.976Z,101410.70
2019-06-01T23:36:53.064Z,101406.02
2019-06-01T23:41:57.156Z,101406.08
2019-06-01T23:47:01.242Z,101402.73
2019-06-01T23:52:05.381Z,101402.81
2019-06-01T23:57:09.766Z,101394.98
